sensor_id;sensor_type;location;lat;lon;timestamp;P1;durP1;ratioP1;P2;durP2;ratioP2
65471;SDS011;52068;50.710;14.492;2022-08-19T00:00:26;5.35;;;4.72;;
65471;SDS011;52068;50.710;14.492;2022-08-19T00:02:52;9.05;;;4.78;;
65471;SDS011;52068;50.710;14.492;2022-08-19T00:05:18;6.78;;;4.93;;
65471;SDS011;52068;50.710;14.492;2022-08-19T00:07:44;5.80;;;4.90;;
65471;SDS011;52068;50.710;14.492;2022-08-19T00:10:11;7.30;;;4.57;;
65471;SDS011;52068;50.710;14.492;2022-08-19T00:12:39;9.57;;;4.43;;
65471;SDS011;52068;50.710;14.492;2022-08-19T00:15:09;5.80;;;4.30;;
65471;SDS011;52068;50.710;14.492;2022-08-19T00:17:40;6.95;;;4.75;;
65471;SDS011;52068;50.710;14.492;2022-08-19T00:20:08;5.50;;;4.32;;
65471;SDS011;52068;50.710;14.492;2022-08-19T00:22:35;6.75;;;4.55;;
65471;SDS011;52068;50.710;14.492;2022-08-19T00:25:01;5.40;;;4.90;;
65471;SDS011;52068;50.710;14.492;2022-08-19T00:27:26;7.20;;;4.95;;
65471;SDS011;52068;50.710;14.492;2022-08-19T00:29:52;9.98;;;4.70;;
65471;SDS011;52068;50.710;14.492;2022-08-19T00:32:17;5.22;;;4.70;;
65471;SDS011;52068;50.710;14.492;2022-08-19T00:34:43;5.97;;;4.63;;
65471;SDS011;52068;50.710;14.492;2022-08-19T00:37:08;5.80;;;4.78;;
65471;SDS011;52068;50.710;14.492;2022-08-19T00:39:34;6.30;;;4.80;;
65471;SDS011;52068;50.710;14.492;2022-08-19T00:41:59;8.77;;;4.43;;
65471;SDS011;52068;50.710;14.492;2022-08-19T00:44:26;5.50;;;5.00;;
65471;SDS011;52068;50.710;14.492;2022-08-19T00:46:54;6.20;;;4.80;;
65471;SDS011;52068;50.710;14.492;2022-08-19T00:52:14;6.55;;;5.05;;
65471;SDS011;52068;50.710;14.492;2022-08-19T00:54:42;8.43;;;4.60;;
65471;SDS011;52068;50.710;14.492;2022-08-19T00:57:10;10.43;;;5.10;;
65471;SDS011;52068;50.710;14.492;2022-08-19T00:59:40;6.78;;;4.88;;
65471;SDS011;52068;50.710;14.492;2022-08-19T01:02:06;7.63;;;4.65;;
65471;SDS011;52068;50.710;14.492;2022-08-19T01:04:33;7.00;;;5.18;;
65471;SDS011;52068;50.710;14.492;2022-08-19T01:06:59;6.50;;;4.78;;
65471;SDS011;52068;50.710;14.492;2022-08-19T01:09:26;5.20;;;4.70;;
65471;SDS011;52068;50.710;14.492;2022-08-19T01:11:51;9.15;;;5.13;;
65471;SDS011;52068;50.710;14.492;2022-08-19T01:14:17;6.22;;;4.68;;
65471;SDS011;52068;50.710;14.492;2022-08-19T01:16:43;6.88;;;4.72;;
65471;SDS011;52068;50.710;14.492;2022-08-19T01:19:13;5.55;;;4.82;;
65471;SDS011;52068;50.710;14.492;2022-08-19T01:21:55;6.45;;;4.80;;
65471;SDS011;52068;50.710;14.492;2022-08-19T01:24:26;8.48;;;5.20;;
65471;SDS011;52068;50.710;14.492;2022-08-19T01:26:51;5.45;;;4.95;;
65471;SDS011;52068;50.710;14.492;2022-08-19T01:29:16;5.32;;;4.75;;
65471;SDS011;52068;50.710;14.492;2022-08-19T01:31:42;6.32;;;4.30;;
65471;SDS011;52068;50.710;14.492;2022-08-19T01:34:07;5.57;;;5.00;;
65471;SDS011;52068;50.710;14.492;2022-08-19T01:39:02;5.53;;;4.35;;
65471;SDS011;52068;50.710;14.492;2022-08-19T01:41:31;6.50;;;4.88;;
65471;SDS011;52068;50.710;14.492;2022-08-19T01:43:56;5.90;;;4.70;;
65471;SDS011;52068;50.710;14.492;2022-08-19T01:46:22;12.85;;;4.85;;
65471;SDS011;52068;50.710;14.492;2022-08-19T01:48:47;10.52;;;4.72;;
65471;SDS011;52068;50.710;14.492;2022-08-19T01:51:13;5.70;;;5.00;;
65471;SDS011;52068;50.710;14.492;2022-08-19T01:53:39;6.85;;;4.57;;
65471;SDS011;52068;50.710;14.492;2022-08-19T01:56:05;8.65;;;5.75;;
65471;SDS011;52068;50.710;14.492;2022-08-19T01:58:41;7.38;;;5.40;;
65471;SDS011;52068;50.710;14.492;2022-08-19T02:01:12;5.88;;;5.13;;
65471;SDS011;52068;50.710;14.492;2022-08-19T02:03:38;6.88;;;5.15;;
65471;SDS011;52068;50.710;14.492;2022-08-19T02:06:04;6.90;;;5.28;;
65471;SDS011;52068;50.710;14.492;2022-08-19T02:08:31;8.57;;;5.15;;
65471;SDS011;52068;50.710;14.492;2022-08-19T02:10:58;7.25;;;4.75;;
65471;SDS011;52068;50.710;14.492;2022-08-19T02:13:24;6.00;;;5.03;;
65471;SDS011;52068;50.710;14.492;2022-08-19T02:15:51;5.68;;;5.18;;
65471;SDS011;52068;50.710;14.492;2022-08-19T02:18:16;5.93;;;5.10;;
65471;SDS011;52068;50.710;14.492;2022-08-19T02:20:42;9.15;;;5.60;;
65471;SDS011;52068;50.710;14.492;2022-08-19T02:23:08;5.72;;;5.18;;
65471;SDS011;52068;50.710;14.492;2022-08-19T02:25:35;6.45;;;4.65;;
65471;SDS011;52068;50.710;14.492;2022-08-19T02:28:00;7.97;;;5.07;;
65471;SDS011;52068;50.710;14.492;2022-08-19T02:30:26;8.25;;;5.18;;
65471;SDS011;52068;50.710;14.492;2022-08-19T02:32:52;6.15;;;5.55;;
65471;SDS011;52068;50.710;14.492;2022-08-19T02:35:17;9.30;;;5.47;;
65471;SDS011;52068;50.710;14.492;2022-08-19T02:37:43;9.07;;;5.88;;
65471;SDS011;52068;50.710;14.492;2022-08-19T02:40:28;6.40;;;5.32;;
65471;SDS011;52068;50.710;14.492;2022-08-19T02:42:56;7.80;;;6.15;;
65471;SDS011;52068;50.710;14.492;2022-08-19T02:45:22;10.13;;;5.53;;
65471;SDS011;52068;50.710;14.492;2022-08-19T02:47:47;6.28;;;5.68;;
65471;SDS011;52068;50.710;14.492;2022-08-19T02:50:13;6.20;;;5.60;;
65471;SDS011;52068;50.710;14.492;2022-08-19T02:52:39;7.03;;;5.78;;
65471;SDS011;52068;50.710;14.492;2022-08-19T02:55:05;6.85;;;6.15;;
65471;SDS011;52068;50.710;14.492;2022-08-19T02:57:31;7.43;;;5.80;;
65471;SDS011;52068;50.710;14.492;2022-08-19T02:59:57;7.50;;;5.70;;
65471;SDS011;52068;50.710;14.492;2022-08-19T03:02:22;9.98;;;6.05;;
65471;SDS011;52068;50.710;14.492;2022-08-19T03:04:48;6.50;;;5.78;;
65471;SDS011;52068;50.710;14.492;2022-08-19T03:07:14;9.70;;;6.22;;
65471;SDS011;52068;50.710;14.492;2022-08-19T03:09:41;7.68;;;6.07;;
65471;SDS011;52068;50.710;14.492;2022-08-19T03:12:07;7.43;;;6.05;;
65471;SDS011;52068;50.710;14.492;2022-08-19T03:14:33;7.03;;;6.35;;
65471;SDS011;52068;50.710;14.492;2022-08-19T03:16:59;8.05;;;6.82;;
65471;SDS011;52068;50.710;14.492;2022-08-19T03:19:24;8.40;;;6.28;;
65471;SDS011;52068;50.710;14.492;2022-08-19T03:21:50;6.60;;;5.93;;
65471;SDS011;52068;50.710;14.492;2022-08-19T03:24:16;7.28;;;6.13;;
65471;SDS011;52068;50.710;14.492;2022-08-19T03:26:45;16.30;;;6.50;;
65471;SDS011;52068;50.710;14.492;2022-08-19T03:29:13;8.88;;;7.28;;
65471;SDS011;52068;50.710;14.492;2022-08-19T03:31:40;9.63;;;6.75;;
65471;SDS011;52068;50.710;14.492;2022-08-19T03:34:08;10.88;;;7.22;;
65471;SDS011;52068;50.710;14.492;2022-08-19T03:36:34;11.85;;;8.00;;
65471;SDS011;52068;50.710;14.492;2022-08-19T03:39:00;8.18;;;7.38;;
65471;SDS011;52068;50.710;14.492;2022-08-19T03:41:27;7.25;;;6.55;;
65471;SDS011;52068;50.710;14.492;2022-08-19T03:43:57;9.23;;;7.18;;
65471;SDS011;52068;50.710;14.492;2022-08-19T03:46:24;7.47;;;6.72;;
65471;SDS011;52068;50.710;14.492;2022-08-19T03:48:52;10.15;;;7.70;;
65471;SDS011;52068;50.710;14.492;2022-08-19T03:51:37;10.68;;;7.47;;
65471;SDS011;52068;50.710;14.492;2022-08-19T03:54:05;10.68;;;8.20;;
65471;SDS011;52068;50.710;14.492;2022-08-19T03:56:33;17.15;;;8.32;;
65471;SDS011;52068;50.710;14.492;2022-08-19T03:59:01;14.63;;;7.72;;
65471;SDS011;52068;50.710;14.492;2022-08-19T04:01:28;13.38;;;8.15;;
65471;SDS011;52068;50.710;14.492;2022-08-19T04:03:57;13.52;;;7.85;;
65471;SDS011;52068;50.710;14.492;2022-08-19T04:06:24;12.07;;;7.97;;
65471;SDS011;52068;50.710;14.492;2022-08-19T04:08:53;13.93;;;7.90;;
65471;SDS011;52068;50.710;14.492;2022-08-19T04:11:20;9.90;;;7.93;;
65471;SDS011;52068;50.710;14.492;2022-08-19T04:13:49;11.15;;;7.53;;
65471;SDS011;52068;50.710;14.492;2022-08-19T04:16:17;12.32;;;7.82;;
65471;SDS011;52068;50.710;14.492;2022-08-19T04:18:44;12.18;;;7.80;;
65471;SDS011;52068;50.710;14.492;2022-08-19T04:21:14;12.80;;;8.35;;
65471;SDS011;52068;50.710;14.492;2022-08-19T04:23:42;17.67;;;8.93;;
65471;SDS011;52068;50.710;14.492;2022-08-19T04:26:11;10.48;;;8.35;;
65471;SDS011;52068;50.710;14.492;2022-08-19T04:28:37;12.07;;;8.65;;
65471;SDS011;52068;50.710;14.492;2022-08-19T04:31:03;19.80;;;9.20;;
65471;SDS011;52068;50.710;14.492;2022-08-19T04:33:28;13.40;;;9.75;;
65471;SDS011;52068;50.710;14.492;2022-08-19T04:35:54;10.85;;;9.65;;
65471;SDS011;52068;50.710;14.492;2022-08-19T04:38:20;16.75;;;9.77;;
65471;SDS011;52068;50.710;14.492;2022-08-19T04:40:48;12.77;;;9.50;;
65471;SDS011;52068;50.710;14.492;2022-08-19T04:43:34;11.60;;;9.90;;
65471;SDS011;52068;50.710;14.492;2022-08-19T04:46:06;14.13;;;10.20;;
65471;SDS011;52068;50.710;14.492;2022-08-19T04:48:32;12.52;;;9.88;;
65471;SDS011;52068;50.710;14.492;2022-08-19T04:50:58;13.50;;;9.18;;
65471;SDS011;52068;50.710;14.492;2022-08-19T04:53:28;12.95;;;9.38;;
65471;SDS011;52068;50.710;14.492;2022-08-19T04:55:59;12.70;;;8.45;;
65471;SDS011;52068;50.710;14.492;2022-08-19T04:58:28;10.93;;;8.50;;
65471;SDS011;52068;50.710;14.492;2022-08-19T05:00:53;9.63;;;8.50;;
65471;SDS011;52068;50.710;14.492;2022-08-19T05:03:19;11.13;;;8.35;;
65471;SDS011;52068;50.710;14.492;2022-08-19T05:05:45;11.23;;;10.05;;
65471;SDS011;52068;50.710;14.492;2022-08-19T05:08:14;14.38;;;9.45;;
65471;SDS011;52068;50.710;14.492;2022-08-19T05:10:45;16.08;;;10.02;;
65471;SDS011;52068;50.710;14.492;2022-08-19T05:13:15;12.77;;;10.20;;
65471;SDS011;52068;50.710;14.492;2022-08-19T05:15:41;15.55;;;10.48;;
65471;SDS011;52068;50.710;14.492;2022-08-19T05:18:07;14.95;;;9.57;;
65471;SDS011;52068;50.710;14.492;2022-08-19T05:20:52;11.73;;;9.70;;
65471;SDS011;52068;50.710;14.492;2022-08-19T05:23:36;11.93;;;9.43;;
65471;SDS011;52068;50.710;14.492;2022-08-19T05:26:01;13.38;;;9.57;;
65471;SDS011;52068;50.710;14.492;2022-08-19T05:28:27;14.80;;;8.80;;
65471;SDS011;52068;50.710;14.492;2022-08-19T05:30:53;12.43;;;8.25;;
65471;SDS011;52068;50.710;14.492;2022-08-19T05:33:20;9.35;;;8.13;;
65471;SDS011;52068;50.710;14.492;2022-08-19T05:35:46;10.25;;;7.57;;
65471;SDS011;52068;50.710;14.492;2022-08-19T05:38:13;10.85;;;8.00;;
65471;SDS011;52068;50.710;14.492;2022-08-19T05:40:38;9.25;;;7.80;;
65471;SDS011;52068;50.710;14.492;2022-08-19T05:43:05;11.90;;;8.38;;
65471;SDS011;52068;50.710;14.492;2022-08-19T05:45:31;11.93;;;8.52;;
65471;SDS011;52068;50.710;14.492;2022-08-19T05:47:57;8.77;;;7.93;;
65471;SDS011;52068;50.710;14.492;2022-08-19T05:50:23;9.40;;;8.23;;
65471;SDS011;52068;50.710;14.492;2022-08-19T05:52:50;13.73;;;8.75;;
65471;SDS011;52068;50.710;14.492;2022-08-19T05:55:16;11.48;;;9.52;;
65471;SDS011;52068;50.710;14.492;2022-08-19T05:57:41;12.23;;;9.55;;
65471;SDS011;52068;50.710;14.492;2022-08-19T06:00:07;13.48;;;10.02;;
65471;SDS011;52068;50.710;14.492;2022-08-19T06:02:35;11.80;;;9.82;;
65471;SDS011;52068;50.710;14.492;2022-08-19T06:05:02;12.95;;;9.43;;
65471;SDS011;52068;50.710;14.492;2022-08-19T06:07:28;18.08;;;11.40;;
65471;SDS011;52068;50.710;14.492;2022-08-19T06:09:54;15.02;;;11.32;;
65471;SDS011;52068;50.710;14.492;2022-08-19T06:12:20;13.52;;;10.13;;
65471;SDS011;52068;50.710;14.492;2022-08-19T06:14:51;12.07;;;10.80;;
65471;SDS011;52068;50.710;14.492;2022-08-19T06:17:17;14.18;;;10.80;;
65471;SDS011;52068;50.710;14.492;2022-08-19T06:19:43;12.98;;;10.25;;
65471;SDS011;52068;50.710;14.492;2022-08-19T06:22:08;13.85;;;10.25;;
65471;SDS011;52068;50.710;14.492;2022-08-19T06:24:36;13.20;;;10.20;;
65471;SDS011;52068;50.710;14.492;2022-08-19T06:27:02;12.63;;;10.85;;
65471;SDS011;52068;50.710;14.492;2022-08-19T06:29:30;14.57;;;12.00;;
65471;SDS011;52068;50.710;14.492;2022-08-19T06:31:57;15.25;;;11.25;;
65471;SDS011;52068;50.710;14.492;2022-08-19T06:34:25;14.68;;;11.77;;
65471;SDS011;52068;50.710;14.492;2022-08-19T06:36:53;12.85;;;11.18;;
65471;SDS011;52068;50.710;14.492;2022-08-19T06:39:23;16.40;;;11.60;;
65471;SDS011;52068;50.710;14.492;2022-08-19T06:44:19;14.20;;;11.13;;
65471;SDS011;52068;50.710;14.492;2022-08-19T06:46:46;12.93;;;11.35;;
65471;SDS011;52068;50.710;14.492;2022-08-19T06:49:13;13.07;;;11.60;;
65471;SDS011;52068;50.710;14.492;2022-08-19T06:51:40;17.88;;;11.38;;
65471;SDS011;52068;50.710;14.492;2022-08-19T06:54:07;14.20;;;10.70;;
65471;SDS011;52068;50.710;14.492;2022-08-19T06:56:33;12.85;;;10.52;;
65471;SDS011;52068;50.710;14.492;2022-08-19T06:59:18;15.45;;;11.07;;
65471;SDS011;52068;50.710;14.492;2022-08-19T07:01:46;12.73;;;11.15;;
65471;SDS011;52068;50.710;14.492;2022-08-19T07:04:18;15.20;;;11.65;;
65471;SDS011;52068;50.710;14.492;2022-08-19T07:06:44;15.68;;;11.60;;
65471;SDS011;52068;50.710;14.492;2022-08-19T07:09:14;16.08;;;11.38;;
65471;SDS011;52068;50.710;14.492;2022-08-19T07:11:47;14.35;;;11.45;;
65471;SDS011;52068;50.710;14.492;2022-08-19T07:14:15;13.55;;;10.88;;
65471;SDS011;52068;50.710;14.492;2022-08-19T07:16:43;12.88;;;10.68;;
65471;SDS011;52068;50.710;14.492;2022-08-19T07:19:10;13.57;;;10.98;;
65471;SDS011;52068;50.710;14.492;2022-08-19T07:21:36;12.40;;;10.32;;
65471;SDS011;52068;50.710;14.492;2022-08-19T07:24:02;13.38;;;10.60;;
65471;SDS011;52068;50.710;14.492;2022-08-19T07:26:29;15.50;;;9.77;;
65471;SDS011;52068;50.710;14.492;2022-08-19T07:28:57;13.73;;;9.32;;
65471;SDS011;52068;50.710;14.492;2022-08-19T07:31:24;12.15;;;10.23;;
65471;SDS011;52068;50.710;14.492;2022-08-19T07:33:51;13.60;;;9.98;;
65471;SDS011;52068;50.710;14.492;2022-08-19T07:36:20;10.15;;;9.13;;
65471;SDS011;52068;50.710;14.492;2022-08-19T07:38:49;14.07;;;9.18;;
65471;SDS011;52068;50.710;14.492;2022-08-19T07:41:18;12.98;;;9.10;;
65471;SDS011;52068;50.710;14.492;2022-08-19T07:43:46;11.93;;;10.10;;
65471;SDS011;52068;50.710;14.492;2022-08-19T07:46:12;13.10;;;10.32;;
65471;SDS011;52068;50.710;14.492;2022-08-19T07:48:40;12.02;;;10.70;;
65471;SDS011;52068;50.710;14.492;2022-08-19T07:51:07;11.90;;;9.88;;
65471;SDS011;52068;50.710;14.492;2022-08-19T07:53:35;14.82;;;10.55;;
65471;SDS011;52068;50.710;14.492;2022-08-19T07:56:02;13.90;;;11.13;;
65471;SDS011;52068;50.710;14.492;2022-08-19T07:58:34;12.57;;;10.85;;
65471;SDS011;52068;50.710;14.492;2022-08-19T08:01:04;12.60;;;10.82;;
65471;SDS011;52068;50.710;14.492;2022-08-19T08:03:30;13.25;;;10.48;;
65471;SDS011;52068;50.710;14.492;2022-08-19T08:06:15;11.77;;;10.00;;
65471;SDS011;52068;50.710;14.492;2022-08-19T08:09:02;11.93;;;10.73;;
65471;SDS011;52068;50.710;14.492;2022-08-19T08:12:18;15.77;;;10.52;;
65471;SDS011;52068;50.710;14.492;2022-08-19T08:14:49;10.93;;;9.82;;
65471;SDS011;52068;50.710;14.492;2022-08-19T08:17:18;13.35;;;10.80;;
65471;SDS011;52068;50.710;14.492;2022-08-19T08:19:45;13.65;;;10.60;;
65471;SDS011;52068;50.710;14.492;2022-08-19T08:22:12;11.15;;;10.00;;
65471;SDS011;52068;50.710;14.492;2022-08-19T08:25:06;14.40;;;10.02;;
65471;SDS011;52068;50.710;14.492;2022-08-19T08:27:36;14.95;;;10.18;;
65471;SDS011;52068;50.710;14.492;2022-08-19T08:30:05;15.32;;;9.10;;
65471;SDS011;52068;50.710;14.492;2022-08-19T08:32:34;13.23;;;9.75;;
65471;SDS011;52068;50.710;14.492;2022-08-19T08:35:00;11.25;;;9.73;;
65471;SDS011;52068;50.710;14.492;2022-08-19T08:37:26;12.18;;;9.88;;
65471;SDS011;52068;50.710;14.492;2022-08-19T08:39:51;13.00;;;9.23;;
65471;SDS011;52068;50.710;14.492;2022-08-19T08:42:24;10.98;;;9.27;;
65471;SDS011;52068;50.710;14.492;2022-08-19T08:44:59;12.18;;;9.27;;
65471;SDS011;52068;50.710;14.492;2022-08-19T08:47:31;9.98;;;8.93;;
65471;SDS011;52068;50.710;14.492;2022-08-19T08:50:07;12.55;;;9.52;;
65471;SDS011;52068;50.710;14.492;2022-08-19T08:52:41;10.68;;;9.63;;
65471;SDS011;52068;50.710;14.492;2022-08-19T08:55:15;10.13;;;8.80;;
65471;SDS011;52068;50.710;14.492;2022-08-19T09:00:17;10.10;;;9.10;;
65471;SDS011;52068;50.710;14.492;2022-08-19T09:02:46;9.93;;;8.88;;
65471;SDS011;52068;50.710;14.492;2022-08-19T09:05:11;10.82;;;8.93;;
65471;SDS011;52068;50.710;14.492;2022-08-19T09:10:22;11.05;;;8.68;;
65471;SDS011;52068;50.710;14.492;2022-08-19T09:15:47;8.82;;;7.93;;
65471;SDS011;52068;50.710;14.492;2022-08-19T09:18:17;10.60;;;7.55;;
65471;SDS011;52068;50.710;14.492;2022-08-19T09:20:43;7.43;;;6.63;;
65471;SDS011;52068;50.710;14.492;2022-08-19T09:23:08;7.97;;;6.75;;
65471;SDS011;52068;50.710;14.492;2022-08-19T09:25:35;8.90;;;7.03;;
65471;SDS011;52068;50.710;14.492;2022-08-19T09:28:01;8.45;;;7.18;;
65471;SDS011;52068;50.710;14.492;2022-08-19T09:30:31;8.48;;;6.22;;
65471;SDS011;52068;50.710;14.492;2022-08-19T09:32:59;9.75;;;6.90;;
65471;SDS011;52068;50.710;14.492;2022-08-19T09:35:27;8.02;;;7.22;;
65471;SDS011;52068;50.710;14.492;2022-08-19T09:37:54;7.40;;;6.18;;
65471;SDS011;52068;50.710;14.492;2022-08-19T09:40:22;7.28;;;5.97;;
65471;SDS011;52068;50.710;14.492;2022-08-19T09:42:47;5.90;;;5.30;;
65471;SDS011;52068;50.710;14.492;2022-08-19T09:45:13;5.45;;;4.95;;
65471;SDS011;52068;50.710;14.492;2022-08-19T09:47:40;5.68;;;4.10;;
65471;SDS011;52068;50.710;14.492;2022-08-19T09:50:06;4.97;;;3.83;;
65471;SDS011;52068;50.710;14.492;2022-08-19T09:52:32;5.63;;;4.07;;
65471;SDS011;52068;50.710;14.492;2022-08-19T09:55:03;6.35;;;4.07;;
65471;SDS011;52068;50.710;14.492;2022-08-19T09:57:29;5.18;;;4.10;;
65471;SDS011;52068;50.710;14.492;2022-08-19T09:59:54;4.30;;;3.90;;
65471;SDS011;52068;50.710;14.492;2022-08-19T10:02:20;4.50;;;3.80;;
65471;SDS011;52068;50.710;14.492;2022-08-19T10:04:45;4.70;;;3.90;;
65471;SDS011;52068;50.710;14.492;2022-08-19T10:07:29;5.22;;;4.50;;
65471;SDS011;52068;50.710;14.492;2022-08-19T10:09:55;4.55;;;4.15;;
65471;SDS011;52068;50.710;14.492;2022-08-19T10:12:20;5.50;;;4.75;;
65471;SDS011;52068;50.710;14.492;2022-08-19T10:14:47;5.00;;;4.25;;
65471;SDS011;52068;50.710;14.492;2022-08-19T10:17:13;7.82;;;4.97;;
65471;SDS011;52068;50.710;14.492;2022-08-19T10:19:38;5.13;;;4.30;;
65471;SDS011;52068;50.710;14.492;2022-08-19T10:22:04;4.78;;;4.28;;
65471;SDS011;52068;50.710;14.492;2022-08-19T10:24:32;5.80;;;4.43;;
65471;SDS011;52068;50.710;14.492;2022-08-19T10:26:58;5.00;;;4.50;;
65471;SDS011;52068;50.710;14.492;2022-08-19T10:29:25;7.40;;;4.80;;
65471;SDS011;52068;50.710;14.492;2022-08-19T10:31:53;6.38;;;4.80;;
65471;SDS011;52068;50.710;14.492;2022-08-19T10:34:18;5.22;;;4.70;;
65471;SDS011;52068;50.710;14.492;2022-08-19T10:36:44;5.65;;;5.03;;
65471;SDS011;52068;50.710;14.492;2022-08-19T10:39:10;5.63;;;4.72;;
65471;SDS011;52068;50.710;14.492;2022-08-19T10:41:37;5.25;;;4.68;;
65471;SDS011;52068;50.710;14.492;2022-08-19T10:44:05;6.63;;;5.05;;
65471;SDS011;52068;50.710;14.492;2022-08-19T10:46:33;7.72;;;4.60;;
65471;SDS011;52068;50.710;14.492;2022-08-19T10:49:02;5.50;;;5.00;;
65471;SDS011;52068;50.710;14.492;2022-08-19T10:51:30;5.05;;;4.53;;
65471;SDS011;52068;50.710;14.492;2022-08-19T10:54:15;5.88;;;4.43;;
65471;SDS011;52068;50.710;14.492;2022-08-19T10:56:41;6.93;;;4.30;;
65471;SDS011;52068;50.710;14.492;2022-08-19T10:59:22;6.05;;;4.50;;
65471;SDS011;52068;50.710;14.492;2022-08-19T11:01:49;5.00;;;4.45;;
65471;SDS011;52068;50.710;14.492;2022-08-19T11:04:16;7.57;;;5.32;;
65471;SDS011;52068;50.710;14.492;2022-08-19T11:06:46;4.90;;;4.43;;
65471;SDS011;52068;50.710;14.492;2022-08-19T11:09:17;5.00;;;4.60;;
65471;SDS011;52068;50.710;14.492;2022-08-19T11:11:45;4.43;;;4.03;;
65471;SDS011;52068;50.710;14.492;2022-08-19T11:14:13;6.55;;;4.15;;
65471;SDS011;52068;50.710;14.492;2022-08-19T11:16:43;4.82;;;4.40;;
65471;SDS011;52068;50.710;14.492;2022-08-19T11:19:09;8.80;;;4.63;;
65471;SDS011;52068;50.710;14.492;2022-08-19T11:21:38;4.95;;;4.30;;
65471;SDS011;52068;50.710;14.492;2022-08-19T11:24:06;6.38;;;5.00;;
65471;SDS011;52068;50.710;14.492;2022-08-19T11:26:34;6.00;;;4.90;;
65471;SDS011;52068;50.710;14.492;2022-08-19T11:29:01;6.07;;;4.53;;
65471;SDS011;52068;50.710;14.492;2022-08-19T11:31:32;9.73;;;4.28;;
65471;SDS011;52068;50.710;14.492;2022-08-19T11:34:00;4.88;;;4.38;;
65471;SDS011;52068;50.710;14.492;2022-08-19T11:36:28;5.03;;;4.53;;
65471;SDS011;52068;50.710;14.492;2022-08-19T11:38:54;5.30;;;4.45;;
65471;SDS011;52068;50.710;14.492;2022-08-19T11:41:21;6.35;;;4.93;;
65471;SDS011;52068;50.710;14.492;2022-08-19T11:43:48;6.80;;;4.60;;
65471;SDS011;52068;50.710;14.492;2022-08-19T11:46:15;5.97;;;5.25;;
65471;SDS011;52068;50.710;14.492;2022-08-19T11:48:42;5.75;;;4.50;;
65471;SDS011;52068;50.710;14.492;2022-08-19T11:51:09;5.25;;;4.60;;
65471;SDS011;52068;50.710;14.492;2022-08-19T11:53:39;6.43;;;4.97;;
65471;SDS011;52068;50.710;14.492;2022-08-19T11:56:06;6.50;;;4.80;;
65471;SDS011;52068;50.710;14.492;2022-08-19T11:58:34;5.10;;;4.55;;
65471;SDS011;52068;50.710;14.492;2022-08-19T12:00:59;6.35;;;4.68;;
65471;SDS011;52068;50.710;14.492;2022-08-19T12:03:25;6.90;;;4.78;;
65471;SDS011;52068;50.710;14.492;2022-08-19T12:05:52;5.00;;;4.47;;
65471;SDS011;52068;50.710;14.492;2022-08-19T12:08:18;5.60;;;4.95;;
65471;SDS011;52068;50.710;14.492;2022-08-19T12:10:45;5.05;;;4.63;;
65471;SDS011;52068;50.710;14.492;2022-08-19T12:13:11;5.45;;;4.95;;
65471;SDS011;52068;50.710;14.492;2022-08-19T12:15:45;8.02;;;5.40;;
65471;SDS011;52068;50.710;14.492;2022-08-19T12:18:11;5.35;;;4.85;;
65471;SDS011;52068;50.710;14.492;2022-08-19T12:20:39;6.47;;;5.00;;
65471;SDS011;52068;50.710;14.492;2022-08-19T12:23:06;6.15;;;5.55;;
65471;SDS011;52068;50.710;14.492;2022-08-19T12:25:34;12.57;;;5.88;;
65471;SDS011;52068;50.710;14.492;2022-08-19T12:28:00;7.75;;;5.20;;
65471;SDS011;52068;50.710;14.492;2022-08-19T12:30:25;6.93;;;5.15;;
65471;SDS011;52068;50.710;14.492;2022-08-19T12:32:51;6.20;;;5.28;;
65471;SDS011;52068;50.710;14.492;2022-08-19T12:35:17;6.13;;;5.22;;
65471;SDS011;52068;50.710;14.492;2022-08-19T12:37:45;8.13;;;5.30;;
65471;SDS011;52068;50.710;14.492;2022-08-19T12:40:13;5.97;;;5.10;;
65471;SDS011;52068;50.710;14.492;2022-08-19T12:42:40;5.93;;;4.97;;
65471;SDS011;52068;50.710;14.492;2022-08-19T12:45:12;6.07;;;5.10;;
65471;SDS011;52068;50.710;14.492;2022-08-19T12:47:38;9.23;;;4.70;;
65471;SDS011;52068;50.710;14.492;2022-08-19T12:50:05;5.03;;;4.63;;
65471;SDS011;52068;50.710;14.492;2022-08-19T12:52:34;8.48;;;5.50;;
65471;SDS011;52068;50.710;14.492;2022-08-19T12:55:02;5.47;;;4.68;;
65471;SDS011;52068;50.710;14.492;2022-08-19T12:57:29;6.43;;;4.97;;
65471;SDS011;52068;50.710;14.492;2022-08-19T12:59:58;5.38;;;4.75;;
65471;SDS011;52068;50.710;14.492;2022-08-19T13:02:28;5.97;;;4.85;;
65471;SDS011;52068;50.710;14.492;2022-08-19T13:04:53;6.82;;;4.85;;
65471;SDS011;52068;50.710;14.492;2022-08-19T13:07:19;7.70;;;4.90;;
65471;SDS011;52068;50.710;14.492;2022-08-19T13:09:44;5.50;;;4.90;;
65471;SDS011;52068;50.710;14.492;2022-08-19T13:12:10;4.80;;;4.30;;
65471;SDS011;52068;50.710;14.492;2022-08-19T13:14:38;5.72;;;4.85;;
65471;SDS011;52068;50.710;14.492;2022-08-19T13:17:05;8.90;;;4.53;;
65471;SDS011;52068;50.710;14.492;2022-08-19T13:19:31;5.47;;;4.70;;
65471;SDS011;52068;50.710;14.492;2022-08-19T13:21:59;6.00;;;4.70;;
65471;SDS011;52068;50.710;14.492;2022-08-19T13:24:25;6.88;;;4.90;;
65471;SDS011;52068;50.710;14.492;2022-08-19T13:26:50;5.00;;;4.50;;
65471;SDS011;52068;50.710;14.492;2022-08-19T13:29:16;4.80;;;4.35;;
65471;SDS011;52068;50.710;14.492;2022-08-19T13:32:00;5.05;;;4.53;;
65471;SDS011;52068;50.710;14.492;2022-08-19T13:34:43;5.15;;;4.65;;
65471;SDS011;52068;50.710;14.492;2022-08-19T13:37:11;5.43;;;4.45;;
65471;SDS011;52068;50.710;14.492;2022-08-19T13:39:37;5.20;;;4.70;;
65471;SDS011;52068;50.710;14.492;2022-08-19T13:42:02;4.82;;;4.43;;
65471;SDS011;52068;50.710;14.492;2022-08-19T13:44:29;5.78;;;5.10;;
65471;SDS011;52068;50.710;14.492;2022-08-19T13:46:55;6.43;;;4.50;;
65471;SDS011;52068;50.710;14.492;2022-08-19T13:49:31;4.90;;;4.30;;
65471;SDS011;52068;50.710;14.492;2022-08-19T13:51:58;5.05;;;4.47;;
65471;SDS011;52068;50.710;14.492;2022-08-19T13:54:23;5.22;;;4.50;;
65471;SDS011;52068;50.710;14.492;2022-08-19T13:56:49;4.75;;;4.35;;
65471;SDS011;52068;50.710;14.492;2022-08-19T13:59:15;4.90;;;4.22;;
65471;SDS011;52068;50.710;14.492;2022-08-19T14:01:40;5.22;;;4.72;;
65471;SDS011;52068;50.710;14.492;2022-08-19T14:04:06;6.78;;;4.45;;
65471;SDS011;52068;50.710;14.492;2022-08-19T14:06:32;5.35;;;4.57;;
65471;SDS011;52068;50.710;14.492;2022-08-19T14:08:58;6.00;;;5.40;;
65471;SDS011;52068;50.710;14.492;2022-08-19T14:11:23;5.45;;;4.85;;
65471;SDS011;52068;50.710;14.492;2022-08-19T14:13:49;6.72;;;5.05;;
65471;SDS011;52068;50.710;14.492;2022-08-19T14:16:15;5.95;;;4.82;;
65471;SDS011;52068;50.710;14.492;2022-08-19T14:18:41;5.18;;;4.68;;
65471;SDS011;52068;50.710;14.492;2022-08-19T14:21:07;6.95;;;4.80;;
65471;SDS011;52068;50.710;14.492;2022-08-19T14:23:33;6.45;;;5.07;;
65471;SDS011;52068;50.710;14.492;2022-08-19T14:26:09;5.95;;;4.90;;
65471;SDS011;52068;50.710;14.492;2022-08-19T14:28:37;7.93;;;4.97;;
65471;SDS011;52068;50.710;14.492;2022-08-19T14:31:04;6.30;;;5.05;;
65471;SDS011;52068;50.710;14.492;2022-08-19T14:33:29;5.45;;;4.93;;
65471;SDS011;52068;50.710;14.492;2022-08-19T14:35:55;5.18;;;4.68;;
65471;SDS011;52068;50.710;14.492;2022-08-19T14:38:20;5.30;;;4.55;;
65471;SDS011;52068;50.710;14.492;2022-08-19T14:40:45;5.13;;;4.65;;
65471;SDS011;52068;50.710;14.492;2022-08-19T14:43:11;5.07;;;4.50;;
65471;SDS011;52068;50.710;14.492;2022-08-19T14:45:37;6.68;;;5.03;;
65471;SDS011;52068;50.710;14.492;2022-08-19T14:48:04;5.55;;;4.85;;